NCAR-RAP Real-Time Weather Data

Output produced by METARs form (06 May 2021  14:56 UTC)
found at http://weather.rap.ucar.edu/surface/
 
KGFK 061453Z 33012KT 10SM SCT100 12/M04 A3017 RMK AO2 SLP224 T01171039 56009
KGFK 061353Z 29014KT 9SM FEW090 10/M02 A3018 RMK AO2 SLP228 T01001017
KGFK 061253Z 22007KT 9SM FEW090 03/M01 A3018 RMK AO2 SLP228 T00331011
KGFK 061201Z 21005KT 10SM FEW001 FEW080 M02/M06 A3020 RMK AO2 FU FEW001 FU PLUME E DRFTG N T10221056
KGFK 061153Z 21005KT 10SM FEW001 FEW080 M03/M06 A3020 RMK AO2 SLP236 FU001 FU PLUME E DRFTG N T10331056 11006 21044 56004
KGFK 061053Z 23003KT 10SM FEW080 M03/M08 A3020 RMK AO2 SLP236 T10281078
KGFK 060953Z AUTO 24003KT 10SM CLR M04/M08 A3020 RMK AO2 SLP237 T10391078
KGFK 060853Z AUTO 25004KT 10SM CLR M02/M07 A3021 RMK AO2 SLP240 T10221072 56003
KGFK 060753Z AUTO 26005KT 10SM CLR M02/M08 A3021 RMK AO2 SLP240 T10221078
KGFK 060653Z AUTO 27004KT 10SM CLR M02/M07 A3021 RMK AO2 SLP240 T10221072
KGFK 060553Z AUTO 28005KT 10SM CLR M01/M07 A3022 RMK AO2 SLP242 T10111067 10111 21011 401391050 51007
KGFK 060453Z AUTO 34005KT 10SM BKN080 01/M06 A3021 RMK AO2 SLP239 T00111061
KGFK 060353Z 35008KT 10SM FEW070 02/M06 A3022 RMK AO2 SLP240 T00221056
KGFK 060253Z 33009KT 10SM FEW060 BKN080 04/01 A3020 RMK AO2 SLP234 T00390006 53016
KGFK 060153Z 29005KT 7SM FEW065 FEW150 06/01 A3017 RMK AO2 SLP223 T00610006
KGFK 060053Z 28007KT 10SM FEW050 SCT080 10/01 A3015 RMK AO2 SLP219 T01000006